sensor_id;sensor_type;location;lat;lon;timestamp;pressure;altitude;pressure_sealevel;temperature;humidity
38191;BME280;25191;47.510;19.124;2022-12-18T00:04:30;101675.97;;;19.98;49.25
38191;BME280;25191;47.510;19.124;2022-12-18T00:14:31;101708.44;;;19.97;48.87
38191;BME280;25191;47.510;19.124;2022-12-18T00:24:31;101719.88;;;19.96;48.38
38191;BME280;25191;47.510;19.124;2022-12-18T00:34:32;101728.78;;;19.94;48.55
38191;BME280;25191;47.510;19.124;2022-12-18T00:44:32;101741.13;;;19.92;48.96
38191;BME280;25191;47.510;19.124;2022-12-18T00:54:32;101749.03;;;19.92;48.57
38191;BME280;25191;47.510;19.124;2022-12-18T01:04:33;101763.09;;;19.91;48.05
38191;BME280;25191;47.510;19.124;2022-12-18T01:14:34;101772.69;;;19.92;48.40
38191;BME280;25191;47.510;19.124;2022-12-18T01:24:35;101784.13;;;19.91;48.09
38191;BME280;25191;47.510;19.124;2022-12-18T01:34:36;101792.00;;;19.91;48.28
38191;BME280;25191;47.510;19.124;2022-12-18T01:54:50;101811.28;;;19.91;48.00
38191;BME280;25191;47.510;19.124;2022-12-18T02:04:51;101822.78;;;19.89;48.07
38191;BME280;25191;47.510;19.124;2022-12-18T02:14:58;101835.94;;;19.89;48.36
38191;BME280;25191;47.510;19.124;2022-12-18T02:35:31;101853.47;;;19.88;48.24
38191;BME280;25191;47.510;19.124;2022-12-18T02:45:33;101862.44;;;19.84;48.20
38191;BME280;25191;47.510;19.124;2022-12-18T03:15:53;101897.47;;;19.84;47.84
38191;BME280;25191;47.510;19.124;2022-12-18T03:25:56;101901.78;;;19.86;48.15
38191;BME280;25191;47.510;19.124;2022-12-18T03:35:58;101922.91;;;19.84;47.83
38191;BME280;25191;47.510;19.124;2022-12-18T03:46:08;101933.34;;;19.86;47.82
38191;BME280;25191;47.510;19.124;2022-12-18T03:56:14;101933.41;;;19.84;47.79
38191;BME280;25191;47.510;19.124;2022-12-18T04:06:16;101943.97;;;19.82;47.56
38191;BME280;25191;47.510;19.124;2022-12-18T04:16:18;101944.91;;;19.81;47.77
38191;BME280;25191;47.510;19.124;2022-12-18T04:26:18;101958.97;;;19.80;47.77
38191;BME280;25191;47.510;19.124;2022-12-18T04:36:19;101958.97;;;19.80;47.63
38191;BME280;25191;47.510;19.124;2022-12-18T04:46:52;101980.91;;;19.79;47.81
38191;BME280;25191;47.510;19.124;2022-12-18T04:56:52;101997.59;;;19.78;47.78
38191;BME280;25191;47.510;19.124;2022-12-18T05:06:53;102005.47;;;19.78;47.94
38191;BME280;25191;47.510;19.124;2022-12-18T05:16:53;102008.91;;;19.80;48.12
38191;BME280;25191;47.510;19.124;2022-12-18T05:26:54;102017.47;;;19.86;47.89
38191;BME280;25191;47.510;19.124;2022-12-18T05:36:54;102034.56;;;19.94;47.49
38191;BME280;25191;47.510;19.124;2022-12-18T05:46:55;102036.09;;;20.00;48.15
38191;BME280;25191;47.510;19.124;2022-12-18T05:56:57;102056.75;;;20.08;47.88
38191;BME280;25191;47.510;19.124;2022-12-18T06:06:58;102065.03;;;20.19;48.86
38191;BME280;25191;47.510;19.124;2022-12-18T06:16:59;102062.19;;;20.24;48.38
38191;BME280;25191;47.510;19.124;2022-12-18T06:27:00;102079.31;;;20.33;49.44
38191;BME280;25191;47.510;19.124;2022-12-18T06:37:02;102099.28;;;20.37;49.63
38191;BME280;25191;47.510;19.124;2022-12-18T06:47:03;102120.81;;;20.45;49.30
38191;BME280;25191;47.510;19.124;2022-12-18T06:57:04;102124.88;;;20.52;49.24
38191;BME280;25191;47.510;19.124;2022-12-18T07:07:04;102143.09;;;20.57;49.02
38191;BME280;25191;47.510;19.124;2022-12-18T07:17:04;102145.56;;;20.60;48.47
38191;BME280;25191;47.510;19.124;2022-12-18T07:27:05;102164.63;;;20.65;48.39
38191;BME280;25191;47.510;19.124;2022-12-18T07:37:09;102203.41;;;20.42;44.40
38191;BME280;25191;47.510;19.124;2022-12-18T07:47:09;102201.19;;;20.52;45.00
38191;BME280;25191;47.510;19.124;2022-12-18T07:57:10;102211.28;;;20.61;45.34
38191;BME280;25191;47.510;19.124;2022-12-18T08:07:13;102233.84;;;20.67;45.49
38191;BME280;25191;47.510;19.124;2022-12-18T08:17:15;102249.47;;;20.72;45.96
38191;BME280;25191;47.510;19.124;2022-12-18T08:27:16;102243.13;;;20.76;45.71
38191;BME280;25191;47.510;19.124;2022-12-18T08:37:17;102260.56;;;20.78;45.89
38191;BME280;25191;47.510;19.124;2022-12-18T08:47:17;102255.16;;;20.82;45.81
38191;BME280;25191;47.510;19.124;2022-12-18T08:57:19;102266.25;;;20.88;46.73
38191;BME280;25191;47.510;19.124;2022-12-18T09:07:20;102287.03;;;20.94;46.24
38191;BME280;25191;47.510;19.124;2022-12-18T09:17:21;102287.75;;;20.98;46.33
38191;BME280;25191;47.510;19.124;2022-12-18T09:27:21;102287.41;;;21.06;46.32
38191;BME280;25191;47.510;19.124;2022-12-18T09:37:21;102287.03;;;21.14;46.47
38191;BME280;25191;47.510;19.124;2022-12-18T09:47:27;102287.63;;;21.20;46.69
38191;BME280;25191;47.510;19.124;2022-12-18T09:57:40;102283.72;;;21.27;46.79
38191;BME280;25191;47.510;19.124;2022-12-18T10:28:39;102278.13;;;21.53;47.08
38191;BME280;25191;47.510;19.124;2022-12-18T10:38:41;102268.38;;;21.55;46.78
38191;BME280;25191;47.510;19.124;2022-12-18T10:48:51;102275.19;;;21.61;46.86
38191;BME280;25191;47.510;19.124;2022-12-18T10:59:03;102275.19;;;21.61;46.63
38191;BME280;25191;47.510;19.124;2022-12-18T11:09:06;102266.88;;;21.68;47.41
38191;BME280;25191;47.510;19.124;2022-12-18T11:19:38;102253.25;;;21.78;47.33
38191;BME280;25191;47.510;19.124;2022-12-18T11:29:40;102257.94;;;21.88;47.46
38191;BME280;25191;47.510;19.124;2022-12-18T11:39:49;102239.94;;;21.97;47.55
38191;BME280;25191;47.510;19.124;2022-12-18T11:49:52;102247.31;;;22.07;48.71
38191;BME280;25191;47.510;19.124;2022-12-18T12:10:34;102222.78;;;22.23;49.69
38191;BME280;25191;47.510;19.124;2022-12-18T12:41:09;102239.63;;;22.20;48.76
38191;BME280;25191;47.510;19.124;2022-12-18T12:51:35;102248.94;;;22.10;45.91
38191;BME280;25191;47.510;19.124;2022-12-18T13:01:47;102259.50;;;22.10;46.62
38191;BME280;25191;47.510;19.124;2022-12-18T13:11:50;102266.72;;;22.06;47.04
38191;BME280;25191;47.510;19.124;2022-12-18T13:22:30;102275.81;;;22.01;47.05
38191;BME280;25191;47.510;19.124;2022-12-18T13:32:32;102281.31;;;21.96;46.91
38191;BME280;25191;47.510;19.124;2022-12-18T13:42:38;102295.66;;;21.90;46.76
38191;BME280;25191;47.510;19.124;2022-12-18T13:52:57;102296.81;;;21.85;47.07
38191;BME280;25191;47.510;19.124;2022-12-18T14:02:59;102311.31;;;21.76;47.30
38191;BME280;25191;47.510;19.124;2022-12-18T14:13:05;102310.56;;;21.74;47.09
38191;BME280;25191;47.510;19.124;2022-12-18T14:23:35;102306.44;;;21.49;42.44
38191;BME280;25191;47.510;19.124;2022-12-18T14:33:37;102313.84;;;20.44;38.61
38191;BME280;25191;47.510;19.124;2022-12-18T14:43:40;102329.88;;;20.98;41.90
38191;BME280;25191;47.510;19.124;2022-12-18T14:53:47;102346.63;;;21.16;44.09
38191;BME280;25191;47.510;19.124;2022-12-18T15:03:48;102364.16;;;21.17;44.48
38191;BME280;25191;47.510;19.124;2022-12-18T15:13:49;102369.84;;;21.27;45.97
38191;BME280;25191;47.510;19.124;2022-12-18T15:23:52;102377.25;;;21.38;46.23
38191;BME280;25191;47.510;19.124;2022-12-18T15:43:56;102400.84;;;21.60;48.15
38191;BME280;25191;47.510;19.124;2022-12-18T15:54:00;102414.59;;;21.67;48.17
38191;BME280;25191;47.510;19.124;2022-12-18T16:04:01;102436.34;;;21.72;48.16
38191;BME280;25191;47.510;19.124;2022-12-18T16:14:02;102437.75;;;21.79;48.47
38191;BME280;25191;47.510;19.124;2022-12-18T16:24:03;102449.84;;;21.83;48.94
38191;BME280;25191;47.510;19.124;2022-12-18T16:44:12;102466.25;;;21.90;48.61
38191;BME280;25191;47.510;19.124;2022-12-18T16:54:13;102480.28;;;21.90;48.87
38191;BME280;25191;47.510;19.124;2022-12-18T17:04:16;102474.00;;;21.93;48.21
38191;BME280;25191;47.510;19.124;2022-12-18T17:14:19;102456.75;;;21.86;48.53
38191;BME280;25191;47.510;19.124;2022-12-18T17:24:20;102454.91;;;21.88;49.16
38191;BME280;25191;47.510;19.124;2022-12-18T17:34:22;102468.19;;;21.86;48.90
38191;BME280;25191;47.510;19.124;2022-12-18T17:44:23;102459.34;;;21.87;48.78
38191;BME280;25191;47.510;19.124;2022-12-18T17:54:23;102477.03;;;21.85;48.98
38191;BME280;25191;47.510;19.124;2022-12-18T18:04:24;102470.03;;;21.84;48.31
38191;BME280;25191;47.510;19.124;2022-12-18T18:14:28;102476.72;;;21.53;45.08
38191;BME280;25191;47.510;19.124;2022-12-18T18:24:29;102486.53;;;21.50;46.60
38191;BME280;25191;47.510;19.124;2022-12-18T18:34:31;102478.38;;;21.54;46.73
38191;BME280;25191;47.510;19.124;2022-12-18T18:44:32;102493.53;;;21.51;46.92
38191;BME280;25191;47.510;19.124;2022-12-18T18:54:33;102517.38;;;21.48;47.28
38191;BME280;25191;47.510;19.124;2022-12-18T19:04:35;102517.72;;;21.40;47.95
38191;BME280;25191;47.510;19.124;2022-12-18T19:14:36;102521.28;;;21.39;48.35
38191;BME280;25191;47.510;19.124;2022-12-18T19:24:37;102534.44;;;21.39;48.88
38191;BME280;25191;47.510;19.124;2022-12-18T19:34:39;102551.97;;;21.40;49.34
38191;BME280;25191;47.510;19.124;2022-12-18T19:44:40;102556.47;;;21.38;49.76
38191;BME280;25191;47.510;19.124;2022-12-18T19:54:43;102564.56;;;21.33;50.06
38191;BME280;25191;47.510;19.124;2022-12-18T20:04:44;102567.34;;;21.30;49.54
38191;BME280;25191;47.510;19.124;2022-12-18T20:14:44;102578.47;;;21.16;48.89
38191;BME280;25191;47.510;19.124;2022-12-18T20:24:46;102579.16;;;20.99;47.65
38191;BME280;25191;47.510;19.124;2022-12-18T20:34:48;102587.31;;;20.93;47.97
38191;BME280;25191;47.510;19.124;2022-12-18T20:44:50;102598.84;;;20.90;49.32
38191;BME280;25191;47.510;19.124;2022-12-18T20:54:51;102605.94;;;20.88;49.90
38191;BME280;25191;47.510;19.124;2022-12-18T21:04:51;102610.47;;;20.85;50.32
38191;BME280;25191;47.510;19.124;2022-12-18T21:14:53;102619.53;;;20.77;50.53
38191;BME280;25191;47.510;19.124;2022-12-18T21:24:54;102625.97;;;20.70;50.47
38191;BME280;25191;47.510;19.124;2022-12-18T21:34:55;102617.44;;;20.63;50.69
38191;BME280;25191;47.510;19.124;2022-12-18T21:44:55;102613.22;;;20.59;50.34
38191;BME280;25191;47.510;19.124;2022-12-18T21:54:57;102609.84;;;20.56;50.22
38191;BME280;25191;47.510;19.124;2022-12-18T22:04:57;102602.22;;;20.50;50.22
38191;BME280;25191;47.510;19.124;2022-12-18T22:14:58;102613.81;;;20.44;50.02
38191;BME280;25191;47.510;19.124;2022-12-18T22:24:58;102610.56;;;20.37;50.36
38191;BME280;25191;47.510;19.124;2022-12-18T22:35:03;102606.22;;;20.36;49.74
38191;BME280;25191;47.510;19.124;2022-12-18T22:45:05;102625.66;;;20.32;49.86
38191;BME280;25191;47.510;19.124;2022-12-18T22:55:06;102624.94;;;20.28;50.07
38191;BME280;25191;47.510;19.124;2022-12-18T23:05:13;102632.03;;;20.26;49.85
38191;BME280;25191;47.510;19.124;2022-12-18T23:15:13;102627.69;;;20.25;49.77
38191;BME280;25191;47.510;19.124;2022-12-18T23:25:14;102632.03;;;20.26;50.27
38191;BME280;25191;47.510;19.124;2022-12-18T23:35:15;102632.22;;;20.22;50.42
38191;BME280;25191;47.510;19.124;2022-12-18T23:45:16;102626.06;;;20.21;50.13
38191;BME280;25191;47.510;19.124;2022-12-18T23:55:16;102641.97;;;20.18;50.27
